sensor_id;sensor_type;location;lat;lon;timestamp;pressure;altitude;pressure_sealevel;temperature
30765;BMP180;494;48.744;10.106;2022-08-02T00:01:03;95470.00;;;18.80
30765;BMP180;494;48.744;10.106;2022-08-02T00:03:32;95978.00;;;18.70
30765;BMP180;494;48.744;10.106;2022-08-02T00:06:01;95853.00;;;18.10
30765;BMP180;494;48.744;10.106;2022-08-02T00:08:30;95933.00;;;18.70
30765;BMP180;494;48.744;10.106;2022-08-02T00:10:59;95943.00;;;18.60
30765;BMP180;494;48.744;10.106;2022-08-02T00:13:31;95812.00;;;18.30
30765;BMP180;494;48.744;10.106;2022-08-02T00:16:02;95986.00;;;18.30
30765;BMP180;494;48.744;10.106;2022-08-02T00:18:31;95945.00;;;18.50
30765;BMP180;494;48.744;10.106;2022-08-02T00:20:59;95756.00;;;18.50
30765;BMP180;494;48.744;10.106;2022-08-02T00:23:28;95216.00;;;17.20
30765;BMP180;494;48.744;10.106;2022-08-02T00:26:18;95873.00;;;18.40
30765;BMP180;494;48.744;10.106;2022-08-02T00:28:48;95936.00;;;17.30
30765;BMP180;494;48.744;10.106;2022-08-02T00:31:17;95798.00;;;18.50
30765;BMP180;494;48.744;10.106;2022-08-02T00:33:45;95885.00;;;17.70
30765;BMP180;494;48.744;10.106;2022-08-02T00:36:34;95965.00;;;18.50
30765;BMP180;494;48.744;10.106;2022-08-02T00:39:03;95711.00;;;18.50
30765;BMP180;494;48.744;10.106;2022-08-02T00:41:53;95934.00;;;18.50
30765;BMP180;494;48.744;10.106;2022-08-02T00:44:23;95830.00;;;18.50
30765;BMP180;494;48.744;10.106;2022-08-02T00:46:52;95814.00;;;18.40
30765;BMP180;494;48.744;10.106;2022-08-02T00:49:20;95936.00;;;18.40
30765;BMP180;494;48.744;10.106;2022-08-02T00:51:50;95747.00;;;17.50
30765;BMP180;494;48.744;10.106;2022-08-02T00:54:20;95707.00;;;18.00
30765;BMP180;494;48.744;10.106;2022-08-02T00:56:49;95732.00;;;18.00
30765;BMP180;494;48.744;10.106;2022-08-02T00:59:17;95857.00;;;18.00
30765;BMP180;494;48.744;10.106;2022-08-02T01:01:47;95848.00;;;18.20
30765;BMP180;494;48.744;10.106;2022-08-02T01:04:25;95942.00;;;18.30
30765;BMP180;494;48.744;10.106;2022-08-02T01:06:59;95955.00;;;18.30
30765;BMP180;494;48.744;10.106;2022-08-02T01:09:27;95763.00;;;18.40
30765;BMP180;494;48.744;10.106;2022-08-02T01:11:56;95753.00;;;18.30
30765;BMP180;494;48.744;10.106;2022-08-02T01:14:29;95815.00;;;18.30
30765;BMP180;494;48.744;10.106;2022-08-02T01:17:05;95990.00;;;18.00
30765;BMP180;494;48.744;10.106;2022-08-02T01:19:47;95966.00;;;18.10
30765;BMP180;494;48.744;10.106;2022-08-02T01:22:54;95962.00;;;18.10
30765;BMP180;494;48.744;10.106;2022-08-02T01:25:52;95948.00;;;18.10
30765;BMP180;494;48.744;10.106;2022-08-02T01:28:35;95959.00;;;18.10
30765;BMP180;494;48.744;10.106;2022-08-02T01:31:14;95847.00;;;18.10
30765;BMP180;494;48.744;10.106;2022-08-02T01:33:50;95843.00;;;18.10
30765;BMP180;494;48.744;10.106;2022-08-02T01:36:22;95482.00;;;16.80
30765;BMP180;494;48.744;10.106;2022-08-02T01:38:54;95949.00;;;18.20
30765;BMP180;494;48.744;10.106;2022-08-02T01:41:26;95757.00;;;18.20
30765;BMP180;494;48.744;10.106;2022-08-02T01:43:59;95965.00;;;17.70
30765;BMP180;494;48.744;10.106;2022-08-02T01:46:31;95958.00;;;18.30
30765;BMP180;494;48.744;10.106;2022-08-02T01:49:06;95775.00;;;17.60
30765;BMP180;494;48.744;10.106;2022-08-02T01:51:39;95730.00;;;18.30
30765;BMP180;494;48.744;10.106;2022-08-02T01:54:30;95761.00;;;18.20
30765;BMP180;494;48.744;10.106;2022-08-02T01:57:02;95901.00;;;18.30
30765;BMP180;494;48.744;10.106;2022-08-02T01:59:34;95716.00;;;18.20
30765;BMP180;494;48.744;10.106;2022-08-02T02:02:07;95932.00;;;18.30
30765;BMP180;494;48.744;10.106;2022-08-02T02:04:37;95962.00;;;18.20
30765;BMP180;494;48.744;10.106;2022-08-02T02:07:07;95803.00;;;18.10
30765;BMP180;494;48.744;10.106;2022-08-02T02:09:38;95928.00;;;18.20
30765;BMP180;494;48.744;10.106;2022-08-02T02:12:17;95961.00;;;18.00
30765;BMP180;494;48.744;10.106;2022-08-02T02:14:49;95885.00;;;18.00
30765;BMP180;494;48.744;10.106;2022-08-02T02:17:20;95958.00;;;18.00
30765;BMP180;494;48.744;10.106;2022-08-02T02:20:13;95970.00;;;18.10
30765;BMP180;494;48.744;10.106;2022-08-02T02:22:43;95955.00;;;18.00
30765;BMP180;494;48.744;10.106;2022-08-02T02:25:18;95970.00;;;18.10
30765;BMP180;494;48.744;10.106;2022-08-02T02:28:12;95962.00;;;18.10
30765;BMP180;494;48.744;10.106;2022-08-02T02:30:48;95987.00;;;17.50
30765;BMP180;494;48.744;10.106;2022-08-02T02:33:21;95788.00;;;18.00
30765;BMP180;494;48.744;10.106;2022-08-02T02:35:58;95786.00;;;18.00
30765;BMP180;494;48.744;10.106;2022-08-02T02:38:30;96007.00;;;18.10
30765;BMP180;494;48.744;10.106;2022-08-02T02:41:02;95977.00;;;17.70
30765;BMP180;494;48.744;10.106;2022-08-02T02:43:34;95776.00;;;18.00
30765;BMP180;494;48.744;10.106;2022-08-02T02:46:09;95892.00;;;17.00
30765;BMP180;494;48.744;10.106;2022-08-02T02:48:38;95951.00;;;17.90
30765;BMP180;494;48.744;10.106;2022-08-02T02:51:09;95956.00;;;17.50
30765;BMP180;494;48.744;10.106;2022-08-02T02:53:42;96000.00;;;17.70
30765;BMP180;494;48.744;10.106;2022-08-02T02:56:33;95630.00;;;17.70
30765;BMP180;494;48.744;10.106;2022-08-02T02:59:03;95743.00;;;17.80
30765;BMP180;494;48.744;10.106;2022-08-02T03:01:34;95960.00;;;17.80
30765;BMP180;494;48.744;10.106;2022-08-02T03:04:24;95976.00;;;17.90
30765;BMP180;494;48.744;10.106;2022-08-02T03:07:15;95960.00;;;18.00
30765;BMP180;494;48.744;10.106;2022-08-02T03:09:44;95956.00;;;18.00
30765;BMP180;494;48.744;10.106;2022-08-02T03:12:22;95896.00;;;17.50
30765;BMP180;494;48.744;10.106;2022-08-02T03:14:59;95978.00;;;18.10
30765;BMP180;494;48.744;10.106;2022-08-02T03:17:40;95732.00;;;18.10
30765;BMP180;494;48.744;10.106;2022-08-02T03:20:13;95788.00;;;17.90
30765;BMP180;494;48.744;10.106;2022-08-02T03:22:43;95982.00;;;17.50
30765;BMP180;494;48.744;10.106;2022-08-02T03:25:16;95792.00;;;18.00
30765;BMP180;494;48.744;10.106;2022-08-02T03:27:45;95678.00;;;16.70
30765;BMP180;494;48.744;10.106;2022-08-02T03:30:14;95813.00;;;18.00
30765;BMP180;494;48.744;10.106;2022-08-02T03:32:46;95961.00;;;17.90
30765;BMP180;494;48.744;10.106;2022-08-02T03:35:17;95708.00;;;17.70
30765;BMP180;494;48.744;10.106;2022-08-02T03:37:53;95171.00;;;17.70
30765;BMP180;494;48.744;10.106;2022-08-02T03:40:24;95962.00;;;17.60
30765;BMP180;494;48.744;10.106;2022-08-02T03:42:53;95916.00;;;17.70
30765;BMP180;494;48.744;10.106;2022-08-02T03:45:23;95981.00;;;17.70
30765;BMP180;494;48.744;10.106;2022-08-02T03:47:55;96013.00;;;17.80
30765;BMP180;494;48.744;10.106;2022-08-02T03:50:26;95962.00;;;17.70
30765;BMP180;494;48.744;10.106;2022-08-02T03:52:56;95949.00;;;17.60
30765;BMP180;494;48.744;10.106;2022-08-02T03:55:25;95972.00;;;17.50
30765;BMP180;494;48.744;10.106;2022-08-02T03:57:54;95772.00;;;17.50
30765;BMP180;494;48.744;10.106;2022-08-02T04:00:22;95981.00;;;17.60
30765;BMP180;494;48.744;10.106;2022-08-02T04:02:51;95767.00;;;17.70
30765;BMP180;494;48.744;10.106;2022-08-02T04:05:22;95977.00;;;17.20
30765;BMP180;494;48.744;10.106;2022-08-02T04:07:51;95504.00;;;17.70
30765;BMP180;494;48.744;10.106;2022-08-02T04:10:40;95743.00;;;17.60
30765;BMP180;494;48.744;10.106;2022-08-02T04:13:27;95920.00;;;17.40
30765;BMP180;494;48.744;10.106;2022-08-02T04:16:08;95982.00;;;17.70
30765;BMP180;494;48.744;10.106;2022-08-02T04:18:44;95791.00;;;17.70
30765;BMP180;494;48.744;10.106;2022-08-02T04:21:18;95814.00;;;17.70
30765;BMP180;494;48.744;10.106;2022-08-02T04:23:50;96043.00;;;17.70
30765;BMP180;494;48.744;10.106;2022-08-02T04:26:20;95812.00;;;17.70
30765;BMP180;494;48.744;10.106;2022-08-02T04:28:55;96008.00;;;17.60
30765;BMP180;494;48.744;10.106;2022-08-02T04:31:25;95848.00;;;17.60
30765;BMP180;494;48.744;10.106;2022-08-02T04:33:54;96003.00;;;17.60
30765;BMP180;494;48.744;10.106;2022-08-02T04:36:24;95976.00;;;17.30
30765;BMP180;494;48.744;10.106;2022-08-02T04:38:58;95695.00;;;17.80
30765;BMP180;494;48.744;10.106;2022-08-02T04:41:38;95993.00;;;17.50
30765;BMP180;494;48.744;10.106;2022-08-02T04:44:10;95986.00;;;17.80
30765;BMP180;494;48.744;10.106;2022-08-02T04:46:40;96026.00;;;17.80
30765;BMP180;494;48.744;10.106;2022-08-02T04:49:10;95764.00;;;17.80
30765;BMP180;494;48.744;10.106;2022-08-02T04:51:41;96000.00;;;17.30
30765;BMP180;494;48.744;10.106;2022-08-02T04:54:11;95948.00;;;17.70
30765;BMP180;494;48.744;10.106;2022-08-02T04:56:40;95778.00;;;17.70
30765;BMP180;494;48.744;10.106;2022-08-02T04:59:08;95498.00;;;17.70
30765;BMP180;494;48.744;10.106;2022-08-02T05:01:38;95694.00;;;17.50
30765;BMP180;494;48.744;10.106;2022-08-02T05:04:08;96005.00;;;17.90
30765;BMP180;494;48.744;10.106;2022-08-02T05:06:38;95779.00;;;17.90
30765;BMP180;494;48.744;10.106;2022-08-02T05:09:07;96014.00;;;18.00
30765;BMP180;494;48.744;10.106;2022-08-02T05:11:35;95904.00;;;17.90
30765;BMP180;494;48.744;10.106;2022-08-02T05:14:04;95896.00;;;18.10
30765;BMP180;494;48.744;10.106;2022-08-02T05:16:33;96036.00;;;18.10
30765;BMP180;494;48.744;10.106;2022-08-02T05:19:02;95902.00;;;18.00
30765;BMP180;494;48.744;10.106;2022-08-02T05:21:30;95807.00;;;18.20
30765;BMP180;494;48.744;10.106;2022-08-02T05:24:00;95877.00;;;18.30
30765;BMP180;494;48.744;10.106;2022-08-02T05:26:29;95870.00;;;17.50
30765;BMP180;494;48.744;10.106;2022-08-02T05:28:57;95799.00;;;18.40
30765;BMP180;494;48.744;10.106;2022-08-02T05:31:26;95793.00;;;18.10
30765;BMP180;494;48.744;10.106;2022-08-02T05:33:54;95986.00;;;18.60
30765;BMP180;494;48.744;10.106;2022-08-02T05:36:23;95983.00;;;18.80
30765;BMP180;494;48.744;10.106;2022-08-02T05:38:51;95910.00;;;17.90
30765;BMP180;494;48.744;10.106;2022-08-02T05:41:27;95948.00;;;18.90
30765;BMP180;494;48.744;10.106;2022-08-02T05:43:56;95946.00;;;18.30
30765;BMP180;494;48.744;10.106;2022-08-02T05:46:24;95573.00;;;18.60
30765;BMP180;494;48.744;10.106;2022-08-02T05:48:53;95241.00;;;19.40
30765;BMP180;494;48.744;10.106;2022-08-02T05:51:27;96020.00;;;19.60
30765;BMP180;494;48.744;10.106;2022-08-02T05:54:10;96008.00;;;18.80
30765;BMP180;494;48.744;10.106;2022-08-02T05:56:50;95794.00;;;19.30
30765;BMP180;494;48.744;10.106;2022-08-02T05:59:30;95820.00;;;20.20
30765;BMP180;494;48.744;10.106;2022-08-02T06:02:04;95978.00;;;19.70
30765;BMP180;494;48.744;10.106;2022-08-02T06:04:55;95958.00;;;20.50
30765;BMP180;494;48.744;10.106;2022-08-02T06:07:28;95800.00;;;20.00
30765;BMP180;494;48.744;10.106;2022-08-02T06:09:57;95978.00;;;20.70
30765;BMP180;494;48.744;10.106;2022-08-02T06:12:31;95988.00;;;20.80
30765;BMP180;494;48.744;10.106;2022-08-02T06:15:02;96063.00;;;20.80
30765;BMP180;494;48.744;10.106;2022-08-02T06:17:32;95875.00;;;21.30
30765;BMP180;494;48.744;10.106;2022-08-02T06:20:10;96022.00;;;21.20
30765;BMP180;494;48.744;10.106;2022-08-02T06:22:41;95651.00;;;21.50
30765;BMP180;494;48.744;10.106;2022-08-02T06:25:12;95971.00;;;21.70
30765;BMP180;494;48.744;10.106;2022-08-02T06:28:04;95833.00;;;22.00
30765;BMP180;494;48.744;10.106;2022-08-02T06:30:38;95979.00;;;22.00
30765;BMP180;494;48.744;10.106;2022-08-02T06:33:07;95432.00;;;22.20
30765;BMP180;494;48.744;10.106;2022-08-02T06:35:44;95559.00;;;22.20
30765;BMP180;494;48.744;10.106;2022-08-02T06:38:20;95790.00;;;22.10
30765;BMP180;494;48.744;10.106;2022-08-02T06:41:01;95980.00;;;22.30
30765;BMP180;494;48.744;10.106;2022-08-02T06:43:43;95980.00;;;22.70
30765;BMP180;494;48.744;10.106;2022-08-02T06:46:12;95977.00;;;22.80
30765;BMP180;494;48.744;10.106;2022-08-02T06:49:01;95807.00;;;23.00
30765;BMP180;494;48.744;10.106;2022-08-02T06:51:30;95982.00;;;23.20
30765;BMP180;494;48.744;10.106;2022-08-02T06:54:00;95522.00;;;23.30
30765;BMP180;494;48.744;10.106;2022-08-02T06:56:28;95947.00;;;23.40
30765;BMP180;494;48.744;10.106;2022-08-02T06:58:58;95827.00;;;22.60
30765;BMP180;494;48.744;10.106;2022-08-02T07:01:32;95633.00;;;23.50
30765;BMP180;494;48.744;10.106;2022-08-02T07:04:05;95902.00;;;23.80
30765;BMP180;494;48.744;10.106;2022-08-02T07:06:34;95973.00;;;24.00
30765;BMP180;494;48.744;10.106;2022-08-02T07:09:03;95978.00;;;24.10
30765;BMP180;494;48.744;10.106;2022-08-02T07:11:48;95701.00;;;23.40
30765;BMP180;494;48.744;10.106;2022-08-02T07:14:18;95825.00;;;24.10
30765;BMP180;494;48.744;10.106;2022-08-02T07:16:46;95643.00;;;23.60
30765;BMP180;494;48.744;10.106;2022-08-02T07:19:15;95917.00;;;24.70
30765;BMP180;494;48.744;10.106;2022-08-02T07:21:43;95912.00;;;25.20
30765;BMP180;494;48.744;10.106;2022-08-02T07:24:25;95880.00;;;25.50
30765;BMP180;494;48.744;10.106;2022-08-02T07:26:54;95843.00;;;25.60
30765;BMP180;494;48.744;10.106;2022-08-02T07:29:39;95770.00;;;26.00
30765;BMP180;494;48.744;10.106;2022-08-02T07:32:14;95979.00;;;25.70
30765;BMP180;494;48.744;10.106;2022-08-02T07:34:43;95980.00;;;25.50
30765;BMP180;494;48.744;10.106;2022-08-02T07:37:18;95842.00;;;25.60
30765;BMP180;494;48.744;10.106;2022-08-02T07:40:08;95987.00;;;26.00
30765;BMP180;494;48.744;10.106;2022-08-02T07:42:41;96020.00;;;25.00
30765;BMP180;494;48.744;10.106;2022-08-02T07:45:13;95887.00;;;26.50
30765;BMP180;494;48.744;10.106;2022-08-02T07:47:43;95854.00;;;25.40
30765;BMP180;494;48.744;10.106;2022-08-02T07:50:15;95683.00;;;25.50
30765;BMP180;494;48.744;10.106;2022-08-02T07:52:44;95978.00;;;26.80
30765;BMP180;494;48.744;10.106;2022-08-02T07:55:15;95982.00;;;26.90
30765;BMP180;494;48.744;10.106;2022-08-02T07:57:44;95372.00;;;27.00
30765;BMP180;494;48.744;10.106;2022-08-02T08:00:16;95733.00;;;27.20
30765;BMP180;494;48.744;10.106;2022-08-02T08:02:45;95983.00;;;26.00
30765;BMP180;494;48.744;10.106;2022-08-02T08:05:14;95991.00;;;27.10
30765;BMP180;494;48.744;10.106;2022-08-02T08:07:43;96005.00;;;27.10
30765;BMP180;494;48.744;10.106;2022-08-02T08:10:11;96041.00;;;26.90
30765;BMP180;494;48.744;10.106;2022-08-02T08:12:40;96065.00;;;27.70
30765;BMP180;494;48.744;10.106;2022-08-02T08:15:09;95861.00;;;27.70
30765;BMP180;494;48.744;10.106;2022-08-02T08:17:39;95855.00;;;26.50
30765;BMP180;494;48.744;10.106;2022-08-02T08:20:09;95982.00;;;27.80
30765;BMP180;494;48.744;10.106;2022-08-02T08:22:42;95982.00;;;27.80
30765;BMP180;494;48.744;10.106;2022-08-02T08:25:10;96013.00;;;26.80
30765;BMP180;494;48.744;10.106;2022-08-02T08:27:47;95753.00;;;28.40
30765;BMP180;494;48.744;10.106;2022-08-02T08:30:16;95835.00;;;28.20
30765;BMP180;494;48.744;10.106;2022-08-02T08:32:46;95988.00;;;28.30
30765;BMP180;494;48.744;10.106;2022-08-02T08:35:15;95993.00;;;28.40
30765;BMP180;494;48.744;10.106;2022-08-02T08:48:57;95552.00;;;29.70
30765;BMP180;494;48.744;10.106;2022-08-02T08:51:30;95618.00;;;29.20
30765;BMP180;494;48.744;10.106;2022-08-02T08:54:05;95875.00;;;29.90
30765;BMP180;494;48.744;10.106;2022-08-02T08:56:35;95212.00;;;30.10
30765;BMP180;494;48.744;10.106;2022-08-02T08:59:04;95576.00;;;30.00
30765;BMP180;494;48.744;10.106;2022-08-02T09:01:34;96134.00;;;30.10
30765;BMP180;494;48.744;10.106;2022-08-02T09:04:18;95609.00;;;29.20
30765;BMP180;494;48.744;10.106;2022-08-02T09:06:47;95706.00;;;28.50
30765;BMP180;494;48.744;10.106;2022-08-02T09:09:16;96152.00;;;29.60
30765;BMP180;494;48.744;10.106;2022-08-02T09:11:44;95916.00;;;27.60
30765;BMP180;494;48.744;10.106;2022-08-02T09:14:25;96014.00;;;30.00
30765;BMP180;494;48.744;10.106;2022-08-02T09:17:07;95986.00;;;30.30
30765;BMP180;494;48.744;10.106;2022-08-02T09:19:40;96051.00;;;28.80
30765;BMP180;494;48.744;10.106;2022-08-02T09:22:13;96005.00;;;29.30
30765;BMP180;494;48.744;10.106;2022-08-02T09:24:55;95701.00;;;31.10
30765;BMP180;494;48.744;10.106;2022-08-02T09:27:42;95576.00;;;29.30
30765;BMP180;494;48.744;10.106;2022-08-02T09:30:43;95636.00;;;30.90
30765;BMP180;494;48.744;10.106;2022-08-02T09:33:11;95953.00;;;31.10
30765;BMP180;494;48.744;10.106;2022-08-02T09:35:45;95425.00;;;28.90
30765;BMP180;494;48.744;10.106;2022-08-02T09:38:35;96172.00;;;29.30
30765;BMP180;494;48.744;10.106;2022-08-02T09:41:06;95949.00;;;30.20
30765;BMP180;494;48.744;10.106;2022-08-02T09:43:46;96162.00;;;30.10
30765;BMP180;494;48.744;10.106;2022-08-02T09:46:32;95298.00;;;27.30
30765;BMP180;494;48.744;10.106;2022-08-02T09:49:08;96059.00;;;29.90
30765;BMP180;494;48.744;10.106;2022-08-02T09:51:50;96048.00;;;29.80
30765;BMP180;494;48.744;10.106;2022-08-02T09:54:22;95143.00;;;30.00
30765;BMP180;494;48.744;10.106;2022-08-02T09:56:55;96024.00;;;29.90
30765;BMP180;494;48.744;10.106;2022-08-02T09:59:26;96005.00;;;30.80
30765;BMP180;494;48.744;10.106;2022-08-02T10:01:57;95999.00;;;31.30
30765;BMP180;494;48.744;10.106;2022-08-02T10:04:31;95987.00;;;31.80
30765;BMP180;494;48.744;10.106;2022-08-02T10:07:21;95918.00;;;32.10
30765;BMP180;494;48.744;10.106;2022-08-02T10:09:50;95750.00;;;31.70
30765;BMP180;494;48.744;10.106;2022-08-02T10:12:20;95763.00;;;32.10
30765;BMP180;494;48.744;10.106;2022-08-02T10:14:50;95889.00;;;32.50
30765;BMP180;494;48.744;10.106;2022-08-02T10:17:20;96021.00;;;33.00
30765;BMP180;494;48.744;10.106;2022-08-02T10:19:48;95759.00;;;32.90
30765;BMP180;494;48.744;10.106;2022-08-02T10:22:33;95843.00;;;33.10
30765;BMP180;494;48.744;10.106;2022-08-02T10:25:03;96015.00;;;33.10
30765;BMP180;494;48.744;10.106;2022-08-02T10:27:35;95730.00;;;33.10
30765;BMP180;494;48.744;10.106;2022-08-02T10:30:26;95943.00;;;32.70
30765;BMP180;494;48.744;10.106;2022-08-02T10:32:58;96005.00;;;33.10
30765;BMP180;494;48.744;10.106;2022-08-02T10:35:34;95982.00;;;32.70
30765;BMP180;494;48.744;10.106;2022-08-02T10:38:08;95989.00;;;32.30
30765;BMP180;494;48.744;10.106;2022-08-02T10:40:46;95983.00;;;32.30
30765;BMP180;494;48.744;10.106;2022-08-02T10:43:43;95996.00;;;32.40
30765;BMP180;494;48.744;10.106;2022-08-02T10:46:32;95972.00;;;32.70
30765;BMP180;494;48.744;10.106;2022-08-02T10:49:12;95984.00;;;32.90
30765;BMP180;494;48.744;10.106;2022-08-02T10:52:06;95979.00;;;32.60
30765;BMP180;494;48.744;10.106;2022-08-02T10:54:40;95990.00;;;32.50
30765;BMP180;494;48.744;10.106;2022-08-02T10:57:18;95908.00;;;32.70
30765;BMP180;494;48.744;10.106;2022-08-02T10:59:49;95583.00;;;32.90
30765;BMP180;494;48.744;10.106;2022-08-02T11:02:40;95765.00;;;33.30
30765;BMP180;494;48.744;10.106;2022-08-02T11:05:12;95891.00;;;33.80
30765;BMP180;494;48.744;10.106;2022-08-02T11:07:45;95719.00;;;34.00
30765;BMP180;494;48.744;10.106;2022-08-02T11:10:45;95852.00;;;34.20
30765;BMP180;494;48.744;10.106;2022-08-02T11:13:15;95991.00;;;34.30
30765;BMP180;494;48.744;10.106;2022-08-02T11:16:02;95974.00;;;34.50
30765;BMP180;494;48.744;10.106;2022-08-02T11:19:03;95912.00;;;34.20
30765;BMP180;494;48.744;10.106;2022-08-02T11:21:34;95868.00;;;34.40
30765;BMP180;494;48.744;10.106;2022-08-02T11:24:24;95992.00;;;34.20
30765;BMP180;494;48.744;10.106;2022-08-02T11:26:55;95852.00;;;33.80
30765;BMP180;494;48.744;10.106;2022-08-02T11:29:37;95887.00;;;33.60
30765;BMP180;494;48.744;10.106;2022-08-02T11:32:13;96005.00;;;34.10
30765;BMP180;494;48.744;10.106;2022-08-02T11:34:44;95951.00;;;34.30
30765;BMP180;494;48.744;10.106;2022-08-02T11:37:27;95951.00;;;34.60
30765;BMP180;494;48.744;10.106;2022-08-02T11:39:55;95874.00;;;33.90
30765;BMP180;494;48.744;10.106;2022-08-02T11:42:32;95954.00;;;34.70
30765;BMP180;494;48.744;10.106;2022-08-02T11:45:01;95949.00;;;35.00
30765;BMP180;494;48.744;10.106;2022-08-02T11:47:30;95980.00;;;35.20
30765;BMP180;494;48.744;10.106;2022-08-02T11:50:07;95825.00;;;35.40
30765;BMP180;494;48.744;10.106;2022-08-02T11:52:37;95917.00;;;35.50
30765;BMP180;494;48.744;10.106;2022-08-02T11:55:07;95814.00;;;35.60
30765;BMP180;494;48.744;10.106;2022-08-02T11:57:38;95943.00;;;35.70
30765;BMP180;494;48.744;10.106;2022-08-02T12:00:28;95796.00;;;35.60
30765;BMP180;494;48.744;10.106;2022-08-02T12:02:57;95868.00;;;35.70
30765;BMP180;494;48.744;10.106;2022-08-02T12:05:26;95906.00;;;35.90
30765;BMP180;494;48.744;10.106;2022-08-02T12:08:14;95615.00;;;35.60
30765;BMP180;494;48.744;10.106;2022-08-02T12:10:48;95900.00;;;36.30
30765;BMP180;494;48.744;10.106;2022-08-02T12:13:18;95972.00;;;36.20
30765;BMP180;494;48.744;10.106;2022-08-02T12:15:47;95941.00;;;36.00
30765;BMP180;494;48.744;10.106;2022-08-02T12:18:18;95875.00;;;36.10
30765;BMP180;494;48.744;10.106;2022-08-02T12:21:20;95909.00;;;34.70
30765;BMP180;494;48.744;10.106;2022-08-02T12:23:49;95900.00;;;36.00
30765;BMP180;494;48.744;10.106;2022-08-02T12:26:27;95916.00;;;36.50
30765;BMP180;494;48.744;10.106;2022-08-02T12:28:58;95940.00;;;36.50
30765;BMP180;494;48.744;10.106;2022-08-02T12:31:40;95940.00;;;36.00
30765;BMP180;494;48.744;10.106;2022-08-02T12:34:26;95824.00;;;35.20
30765;BMP180;494;48.744;10.106;2022-08-02T12:37:05;95623.00;;;36.10
30765;BMP180;494;48.744;10.106;2022-08-02T12:39:40;95985.00;;;35.90
30765;BMP180;494;48.744;10.106;2022-08-02T12:42:11;95967.00;;;36.30
30765;BMP180;494;48.744;10.106;2022-08-02T12:44:52;95889.00;;;35.60
30765;BMP180;494;48.744;10.106;2022-08-02T12:47:21;95822.00;;;35.80
30765;BMP180;494;48.744;10.106;2022-08-02T12:50:11;95550.00;;;35.90
30765;BMP180;494;48.744;10.106;2022-08-02T12:52:40;95774.00;;;35.40
30765;BMP180;494;48.744;10.106;2022-08-02T12:55:22;95960.00;;;36.20
30765;BMP180;494;48.744;10.106;2022-08-02T12:58:12;95809.00;;;35.90
30765;BMP180;494;48.744;10.106;2022-08-02T13:00:52;95700.00;;;36.40
30765;BMP180;494;48.744;10.106;2022-08-02T13:03:22;95923.00;;;36.80
30765;BMP180;494;48.744;10.106;2022-08-02T13:06:11;95979.00;;;35.90
30765;BMP180;494;48.744;10.106;2022-08-02T13:09:02;95930.00;;;37.30
30765;BMP180;494;48.744;10.106;2022-08-02T13:11:38;95618.00;;;37.30
30765;BMP180;494;48.744;10.106;2022-08-02T13:14:10;95951.00;;;37.30
30765;BMP180;494;48.744;10.106;2022-08-02T13:16:42;95867.00;;;37.00
30765;BMP180;494;48.744;10.106;2022-08-02T13:19:12;95901.00;;;36.30
30765;BMP180;494;48.744;10.106;2022-08-02T13:21:44;95898.00;;;37.40
30765;BMP180;494;48.744;10.106;2022-08-02T13:24:29;95801.00;;;37.60
30765;BMP180;494;48.744;10.106;2022-08-02T13:27:18;95817.00;;;38.50
30765;BMP180;494;48.744;10.106;2022-08-02T13:29:47;95912.00;;;38.80
30765;BMP180;494;48.744;10.106;2022-08-02T13:32:18;95948.00;;;38.80
30765;BMP180;494;48.744;10.106;2022-08-02T13:34:47;95837.00;;;38.60
30765;BMP180;494;48.744;10.106;2022-08-02T13:37:16;95919.00;;;38.80
30765;BMP180;494;48.744;10.106;2022-08-02T13:39:46;95794.00;;;38.50
30765;BMP180;494;48.744;10.106;2022-08-02T13:42:34;95914.00;;;39.30
30765;BMP180;494;48.744;10.106;2022-08-02T13:45:03;95933.00;;;39.40
30765;BMP180;494;48.744;10.106;2022-08-02T13:47:42;95919.00;;;39.50
30765;BMP180;494;48.744;10.106;2022-08-02T13:50:31;95791.00;;;39.70
30765;BMP180;494;48.744;10.106;2022-08-02T13:53:00;95800.00;;;39.50
30765;BMP180;494;48.744;10.106;2022-08-02T13:55:28;95675.00;;;39.40
30765;BMP180;494;48.744;10.106;2022-08-02T13:57:57;95850.00;;;38.40
30765;BMP180;494;48.744;10.106;2022-08-02T14:00:27;95914.00;;;39.10
30765;BMP180;494;48.744;10.106;2022-08-02T14:03:05;95934.00;;;39.80
30765;BMP180;494;48.744;10.106;2022-08-02T14:05:40;95813.00;;;40.10
30765;BMP180;494;48.744;10.106;2022-08-02T14:08:16;95913.00;;;40.50
30765;BMP180;494;48.744;10.106;2022-08-02T14:10:46;95758.00;;;38.20
30765;BMP180;494;48.744;10.106;2022-08-02T14:13:15;95915.00;;;39.00
30765;BMP180;494;48.744;10.106;2022-08-02T14:15:44;95810.00;;;39.40
30765;BMP180;494;48.744;10.106;2022-08-02T14:18:14;95568.00;;;39.00
30765;BMP180;494;48.744;10.106;2022-08-02T14:20:43;95860.00;;;40.50
30765;BMP180;494;48.744;10.106;2022-08-02T14:23:12;95862.00;;;40.20
30765;BMP180;494;48.744;10.106;2022-08-02T14:25:41;95924.00;;;40.20
30765;BMP180;494;48.744;10.106;2022-08-02T14:28:10;95900.00;;;40.00
30765;BMP180;494;48.744;10.106;2022-08-02T14:30:38;95880.00;;;40.10
30765;BMP180;494;48.744;10.106;2022-08-02T14:33:08;95879.00;;;40.10
30765;BMP180;494;48.744;10.106;2022-08-02T14:35:38;95873.00;;;40.10
30765;BMP180;494;48.744;10.106;2022-08-02T14:38:06;95837.00;;;38.40
30765;BMP180;494;48.744;10.106;2022-08-02T14:40:35;95805.00;;;39.10
30765;BMP180;494;48.744;10.106;2022-08-02T14:43:04;95902.00;;;39.40
30765;BMP180;494;48.744;10.106;2022-08-02T14:45:34;95832.00;;;39.40
30765;BMP180;494;48.744;10.106;2022-08-02T14:48:09;95902.00;;;39.70
30765;BMP180;494;48.744;10.106;2022-08-02T14:50:39;95808.00;;;39.30
30765;BMP180;494;48.744;10.106;2022-08-02T14:53:08;95944.00;;;39.00
30765;BMP180;494;48.744;10.106;2022-08-02T14:55:40;95896.00;;;38.10
30765;BMP180;494;48.744;10.106;2022-08-02T14:58:10;95897.00;;;38.30
30765;BMP180;494;48.744;10.106;2022-08-02T15:00:39;95892.00;;;38.30
30765;BMP180;494;48.744;10.106;2022-08-02T15:03:10;95919.00;;;38.00
30765;BMP180;494;48.744;10.106;2022-08-02T15:05:41;95783.00;;;37.70
30765;BMP180;494;48.744;10.106;2022-08-02T15:08:09;95936.00;;;37.70
30765;BMP180;494;48.744;10.106;2022-08-02T15:10:43;95950.00;;;36.30
30765;BMP180;494;48.744;10.106;2022-08-02T15:13:12;95810.00;;;37.40